Time;durP1;ratioP1;P1;durP2;ratioP2;P2;SDS_P1;SDS_P2;PMS_P1;PMS_P2;Temp;Humidity;BMP_temperature;BMP_pressure;BME280_temperature;BME280_humidity;BME280_pressure;Samples;Min_cycle;Max_cycle;Signal;HPM_P1;HPM_P2
2023/01/14 00:01:35;;;;;;;15.50;7.47;;;8.70;99.90;;;;;;5082321;28;20222;-91
2023/01/14 00:04:24;;;;;;;15.63;7.07;;;8.60;99.90;;;;;;5104771;28;20304;-92
2023/01/14 00:07:12;;;;;;;11.48;7.00;;;8.60;99.90;;;;;;5106581;28;20232;-91
2023/01/14 00:10:03;;;;;;;9.93;6.97;;;8.50;99.90;;;;;;5081567;28;20239;-91
2023/01/14 00:12:52;;;;;;;10.30;6.30;;;8.60;99.90;;;;;;5059666;28;20350;-92
2023/01/14 00:15:49;;;;;;;12.65;6.80;;;8.50;99.90;;;;;;5068976;28;20224;-91
2023/01/14 00:18:38;;;;;;;11.93;6.85;;;8.50;99.90;;;;;;5061505;28;20416;-91
2023/01/14 00:21:27;;;;;;;11.43;6.93;;;8.50;99.90;;;;;;5064639;28;20294;-91
2023/01/14 00:24:17;;;;;;;10.52;6.65;;;8.60;99.90;;;;;;5085704;28;20455;-92
2023/01/14 00:27:07;;;;;;;9.80;6.25;;;8.60;99.90;;;;;;5104031;28;20219;-92
2023/01/14 00:29:56;;;;;;;12.18;7.13;;;8.60;99.90;;;;;;5104501;28;20236;-89
2023/01/14 00:32:44;;;;;;;12.80;7.72;;;8.50;99.90;;;;;;5061837;28;20215;-89
2023/01/14 00:35:33;;;;;;;11.27;7.10;;;8.60;99.90;;;;;;5070223;28;20215;-89
2023/01/14 00:38:22;;;;;;;12.02;6.22;;;8.50;99.90;;;;;;5072483;28;20265;-91
2023/01/14 00:41:13;;;;;;;11.32;6.30;;;8.50;99.90;;;;;;5064343;28;20397;-89
2023/01/14 00:44:03;;;;;;;11.32;6.40;;;8.50;99.90;;;;;;5069677;28;20224;-89
2023/01/14 00:46:53;;;;;;;10.52;6.72;;;8.50;99.90;;;;;;5068596;28;20227;-88
2023/01/14 00:49:44;;;;;;;11.63;6.80;;;8.50;99.90;;;;;;5078122;28;21781;-89
2023/01/14 00:52:34;;;;;;;10.88;6.55;;;8.50;99.90;;;;;;5073311;28;20223;-90
2023/01/14 00:55:23;;;;;;;10.43;6.32;;;8.50;99.90;;;;;;5081325;28;20571;-91
2023/01/14 00:58:12;;;;;;;9.13;5.88;;;8.40;99.90;;;;;;5073872;28;20223;-91
2023/01/14 01:01:02;;;;;;;11.68;6.40;;;8.50;99.90;;;;;;5064447;28;20254;-89
2023/01/14 01:03:53;;;;;;;10.05;6.50;;;8.50;99.90;;;;;;5076016;28;20315;-90
2023/01/14 01:06:42;;;;;;;12.90;6.13;;;8.40;99.90;;;;;;5093309;28;20219;-90
2023/01/14 01:09:32;;;;;;;12.60;6.18;;;8.40;99.90;;;;;;5098022;28;20220;-89
2023/01/14 01:12:21;;;;;;;11.35;6.78;;;8.40;99.90;;;;;;5075976;28;20591;-91
2023/01/14 01:15:11;;;;;;;10.80;6.20;;;8.50;99.90;;;;;;5072161;28;20215;-89
2023/01/14 01:18:01;;;;;;;9.75;6.07;;;8.40;99.90;;;;;;5084162;28;20236;-88
2023/01/14 01:20:50;;;;;;;9.85;5.70;;;8.40;99.90;;;;;;5086053;28;20223;-89
2023/01/14 01:23:40;;;;;;;9.35;5.50;;;8.30;99.90;;;;;;5090818;28;20227;-89
2023/01/14 01:26:30;;;;;;;11.43;5.65;;;8.40;99.90;;;;;;5085097;28;20263;-89
2023/01/14 01:29:19;;;;;;;8.73;5.30;;;8.40;99.90;;;;;;5102067;28;20224;-89
2023/01/14 01:32:09;;;;;;;9.32;4.82;;;8.50;99.90;;;;;;5089121;28;20272;-90
2023/01/14 01:34:59;;;;;;;9.75;4.82;;;8.40;99.90;;;;;;5083035;28;20232;-90
2023/01/14 01:37:48;;;;;;;9.00;5.28;;;8.50;99.90;;;;;;5070410;28;20222;-90
2023/01/14 01:40:37;;;;;;;8.18;4.70;;;8.50;99.90;;;;;;5071023;28;20231;-90
2023/01/14 01:43:29;;;;;;;9.60;4.78;;;8.50;99.90;;;;;;5082550;28;20227;-89
2023/01/14 01:46:18;;;;;;;8.75;4.50;;;8.50;99.90;;;;;;5079841;28;20571;-90
2023/01/14 01:49:11;;;;;;;10.65;5.03;;;8.60;99.90;;;;;;5070566;28;20264;-90
2023/01/14 01:52:05;;;;;;;7.78;4.40;;;8.50;99.90;;;;;;5084123;28;20296;-90
2023/01/14 01:54:57;;;;;;;9.83;4.70;;;8.60;99.90;;;;;;5079779;28;20238;-90
2023/01/14 01:57:51;;;;;;;9.85;4.88;;;8.50;99.90;;;;;;5077961;28;20674;-91
2023/01/14 02:00:41;;;;;;;10.60;5.25;;;8.60;99.90;;;;;;5069145;28;20223;-90
2023/01/14 02:03:35;;;;;;;12.38;4.90;;;8.50;99.90;;;;;;5087586;28;20219;-88
2023/01/14 02:06:24;;;;;;;10.40;5.35;;;8.50;99.90;;;;;;5096688;28;20225;-87
2023/01/14 02:09:16;;;;;;;11.10;5.43;;;8.40;99.90;;;;;;5093063;28;20226;-89
2023/01/14 02:12:25;;;;;;;9.70;4.95;;;8.40;99.90;;;;;;5090528;28;20238;-90
2023/01/14 02:15:28;;;;;;;9.88;5.20;;;8.30;99.90;;;;;;5055487;28;20225;-89
2023/01/14 02:18:27;;;;;;;11.30;5.57;;;8.40;99.90;;;;;;5068735;28;20219;-90
2023/01/14 02:21:20;;;;;;;10.85;5.43;;;8.40;99.90;;;;;;5083191;28;20238;-88
2023/01/14 02:24:45;;;;;;;9.48;5.45;;;8.50;99.90;;;;;;5095927;28;20249;-89
2023/01/14 02:27:41;;;;;;;9.45;5.57;;;8.30;99.90;;;;;;5076285;28;20822;-89
2023/01/14 02:30:40;;;;;;;9.55;5.75;;;8.40;99.90;;;;;;5069249;28;20228;-89
2023/01/14 02:33:42;;;;;;;9.63;5.57;;;8.40;99.90;;;;;;5088306;28;20232;-89
2023/01/14 02:36:49;;;;;;;10.00;5.65;;;8.30;99.90;;;;;;5096980;28;20230;-92
2023/01/14 02:39:43;;;;;;;10.60;6.03;;;8.30;99.90;;;;;;5081135;28;20215;-91
2023/01/14 02:46:00;;;;;;;9.70;6.30;;;8.30;99.90;;;;;;5076795;28;20274;-83
2023/01/14 02:48:52;;;;;;;10.18;5.82;;;8.20;99.90;;;;;;5090484;28;20263;-88
2023/01/14 02:51:41;;;;;;;10.15;5.90;;;8.20;99.90;;;;;;5076545;28;20219;-91
2023/01/14 02:54:30;;;;;;;11.32;6.38;;;8.30;99.90;;;;;;5079463;28;20303;-92
2023/01/14 02:57:29;;;;;;;10.50;6.45;;;8.20;99.90;;;;;;5072944;28;20224;-92
2023/01/14 03:00:22;;;;;;;10.25;6.03;;;8.20;99.90;;;;;;5087452;28;20274;-91
2023/01/14 03:03:28;;;;;;;13.23;6.40;;;8.20;99.90;;;;;;5073233;28;20318;-92
2023/01/14 03:06:29;;;;;;;15.10;6.60;;;8.10;99.90;;;;;;5073627;28;20334;-91
2023/01/14 03:09:27;;;;;;;11.18;6.75;;;8.10;99.90;;;;;;5068108;28;20706;-91
2023/01/14 03:12:23;;;;;;;15.30;6.93;;;8.10;99.90;;;;;;5083044;28;20346;-90
2023/01/14 03:15:22;;;;;;;11.75;6.30;;;8.00;99.90;;;;;;5071868;28;20876;-88
2023/01/14 03:18:20;;;;;;;12.63;7.03;;;8.00;99.90;;;;;;5065463;28;20227;-90
2023/01/14 03:21:14;;;;;;;13.45;6.65;;;8.00;99.90;;;;;;5067216;28;20594;-89
2023/01/14 03:24:06;;;;;;;9.82;6.20;;;8.00;99.90;;;;;;5075985;28;20226;-89
2023/01/14 03:26:57;;;;;;;10.38;6.20;;;7.90;99.90;;;;;;5065743;28;20224;-90
2023/01/14 03:29:50;;;;;;;11.48;6.88;;;8.00;99.90;;;;;;5071239;28;20553;-89
2023/01/14 03:32:43;;;;;;;11.85;6.95;;;8.00;99.90;;;;;;5067037;28;20238;-89
2023/01/14 03:35:36;;;;;;;11.80;6.63;;;7.90;99.90;;;;;;5052197;28;20261;-89
2023/01/14 03:38:30;;;;;;;15.80;6.82;;;8.00;99.90;;;;;;5053146;28;20729;-87
2023/01/14 03:44:30;;;;;;;12.02;6.38;;;7.80;99.90;;;;;;5067255;28;20226;-87
2023/01/14 03:47:19;;;;;;;15.70;6.50;;;7.70;99.90;;;;;;5078480;28;20709;-86
2023/01/14 03:50:12;;;;;;;10.70;6.73;;;7.70;99.90;;;;;;5062072;28;20220;-87
2023/01/14 03:53:20;;;;;;;12.45;6.90;;;7.70;99.90;;;;;;5085738;28;20447;-87
2023/01/14 03:56:21;;;;;;;10.93;7.00;;;7.70;99.90;;;;;;5067352;28;21137;-86
2023/01/14 03:59:14;;;;;;;12.77;6.30;;;7.60;99.90;;;;;;5074443;28;20288;-85
2023/01/14 04:02:04;;;;;;;12.52;6.40;;;7.60;99.90;;;;;;5060923;28;20236;-86
2023/01/14 04:04:54;;;;;;;14.38;6.65;;;7.60;99.90;;;;;;5061687;28;20381;-85
2023/01/14 04:07:43;;;;;;;11.30;6.30;;;7.60;99.90;;;;;;5089002;28;20211;-90
2023/01/14 04:10:33;;;;;;;10.07;6.00;;;7.60;99.90;;;;;;5088222;28;20206;-88
2023/01/14 04:16:28;;;;;;;10.20;6.65;;;7.40;99.90;;;;;;5079154;28;20264;-86
2023/01/14 04:19:17;;;;;;;11.83;6.37;;;7.40;99.90;;;;;;5078945;28;20218;-90
2023/01/14 04:22:06;;;;;;;11.70;5.93;;;7.50;99.90;;;;;;5083280;28;20759;-91
2023/01/14 04:24:55;;;;;;;12.17;6.60;;;7.50;99.90;;;;;;5060514;28;21142;-92
2023/01/14 04:27:45;;;;;;;9.10;5.67;;;7.40;99.90;;;;;;5079963;28;20760;-91
2023/01/14 04:30:33;;;;;;;10.30;5.93;;;7.40;99.90;;;;;;5068443;28;20228;-92
2023/01/14 04:33:22;;;;;;;14.20;6.53;;;7.40;99.90;;;;;;5070058;28;22053;-89
2023/01/14 04:36:11;;;;;;;10.00;5.87;;;7.40;99.90;;;;;;5070202;28;20572;-87
2023/01/14 04:39:00;;;;;;;11.43;5.93;;;7.40;99.90;;;;;;5073782;28;20223;-88
2023/01/14 04:44:59;;;;;;;9.43;5.70;;;7.30;99.90;;;;;;5065221;28;20337;-89
2023/01/14 04:47:50;;;;;;;10.50;5.97;;;7.30;99.90;;;;;;5075374;28;20267;-90
2023/01/14 04:50:44;;;;;;;10.70;5.60;;;7.30;99.90;;;;;;5087556;28;20218;-89
2023/01/14 04:53:33;;;;;;;9.63;5.63;;;7.30;99.90;;;;;;5068348;28;20277;-89
2023/01/14 04:56:22;;;;;;;10.97;5.40;;;7.30;99.90;;;;;;5049231;28;20224;-90
2023/01/14 04:59:10;;;;;;;9.07;5.00;;;7.40;99.90;;;;;;5064982;28;20233;-89
2023/01/14 05:02:01;;;;;;;10.30;5.20;;;7.30;99.90;;;;;;5077195;28;20214;-90
2023/01/14 05:04:50;;;;;;;10.57;5.23;;;7.40;99.90;;;;;;5071482;28;20225;-90
2023/01/14 05:07:39;;;;;;;11.10;5.13;;;7.40;99.90;;;;;;5077784;28;20211;-88
2023/01/14 05:10:28;;;;;;;7.67;4.40;;;7.40;99.90;;;;;;5089568;28;20220;-88
2023/01/14 05:13:17;;;;;;;10.27;4.87;;;7.40;99.90;;;;;;5079711;28;20225;-89
2023/01/14 05:16:07;;;;;;;9.43;4.30;;;7.40;99.90;;;;;;5078796;28;20582;-89
2023/01/14 05:18:57;;;;;;;10.13;4.43;;;7.40;99.90;;;;;;5087944;28;20239;-87
2023/01/14 05:21:46;;;;;;;7.57;4.10;;;7.40;99.90;;;;;;5076061;28;20234;-91
2023/01/14 05:24:35;;;;;;;9.53;4.20;;;7.40;99.90;;;;;;5083321;28;20227;-90
2023/01/14 05:27:24;;;;;;;9.33;4.53;;;7.50;99.90;;;;;;5082165;28;20718;-90
2023/01/14 05:30:13;;;;;;;9.60;4.47;;;7.60;99.90;;;;;;5101211;28;20233;-90
2023/01/14 05:33:02;;;;;;;8.20;4.50;;;7.50;99.90;;;;;;5078155;28;20248;-89
2023/01/14 05:35:56;;;;;;;7.93;4.27;;;7.50;99.90;;;;;;5069713;28;20231;-90
2023/01/14 05:38:45;;;;;;;9.27;4.37;;;7.50;99.90;;;;;;5054880;28;20243;-90
2023/01/14 05:41:34;;;;;;;10.63;4.07;;;7.50;99.90;;;;;;5063462;28;20231;-88
2023/01/14 05:47:29;;;;;;;10.03;4.23;;;7.50;99.90;;;;;;5089234;28;20317;-91
2023/01/14 05:50:18;;;;;;;9.63;3.72;;;7.50;99.90;;;;;;5076172;28;20227;-91
2023/01/14 05:53:10;;;;;;;8.67;4.17;;;7.50;99.90;;;;;;5068298;28;20229;-88
2023/01/14 05:55:59;;;;;;;7.10;4.10;;;7.50;99.90;;;;;;5075342;28;20599;-90
2023/01/14 05:58:51;;;;;;;12.13;4.10;;;7.40;99.90;;;;;;5072203;28;20690;-89
2023/01/14 06:07:52;;;;;;;7.87;3.67;;;7.50;99.90;;;;;;5078156;28;20232;-89
2023/01/14 06:10:42;;;;;;;8.00;3.53;;;7.50;99.90;;;;;;5107592;28;20218;-88
2023/01/14 06:13:34;;;;;;;7.20;3.67;;;7.50;99.90;;;;;;5089531;28;20223;-89
2023/01/14 06:16:23;;;;;;;8.57;3.85;;;7.40;99.90;;;;;;5089449;28;20230;-91
2023/01/14 06:19:14;;;;;;;8.03;4.00;;;7.50;99.90;;;;;;5075894;28;20235;-89
2023/01/14 06:22:03;;;;;;;9.57;3.60;;;7.50;99.90;;;;;;5073624;28;20246;-90
2023/01/14 06:24:52;;;;;;;7.93;3.80;;;7.60;99.90;;;;;;5072767;28;20230;-89
2023/01/14 06:27:42;;;;;;;6.13;3.83;;;7.60;99.90;;;;;;5078278;28;20659;-86
2023/01/14 06:30:31;;;;;;;6.57;3.90;;;7.50;99.90;;;;;;5067378;28;20223;-87
2023/01/14 06:33:20;;;;;;;6.28;3.17;;;7.60;99.90;;;;;;5071577;28;20823;-87
2023/01/14 06:36:10;;;;;;;7.20;3.43;;;7.60;99.90;;;;;;5065708;28;20219;-90
2023/01/14 06:38:59;;;;;;;7.20;3.00;;;7.70;99.90;;;;;;5060060;28;20232;-88
2023/01/14 06:41:48;;;;;;;8.23;3.40;;;7.60;99.90;;;;;;5073791;28;20221;-87
2023/01/14 06:44:38;;;;;;;7.60;3.43;;;7.60;99.90;;;;;;5056539;28;20664;-88
2023/01/14 06:47:28;;;;;;;6.57;3.77;;;7.60;99.90;;;;;;5054218;28;20242;-88
2023/01/14 06:50:18;;;;;;;8.97;3.43;;;7.70;99.90;;;;;;5067590;28;20220;-89
2023/01/14 06:53:07;;;;;;;6.27;3.30;;;7.70;99.90;;;;;;5059595;28;20254;-89
2023/01/14 06:55:55;;;;;;;7.57;3.40;;;7.70;99.90;;;;;;5065652;28;20240;-88
2023/01/14 06:58:47;;;;;;;6.40;3.33;;;7.70;99.90;;;;;;5073423;28;20222;-85
2023/01/14 07:01:39;;;;;;;10.43;4.20;;;7.70;99.90;;;;;;5077929;28;20275;-88
2023/01/14 07:04:27;;;;;;;9.67;3.57;;;7.80;99.90;;;;;;5060136;28;20215;-88
2023/01/14 07:07:17;;;;;;;7.23;3.13;;;7.80;99.90;;;;;;5074350;28;20713;-89
2023/01/14 07:10:06;;;;;;;4.87;3.10;;;7.80;99.90;;;;;;5081169;28;20220;-88
2023/01/14 07:12:55;;;;;;;13.70;4.18;;;7.70;99.90;;;;;;5081811;28;20776;-90
2023/01/14 07:15:45;;;;;;;10.03;4.00;;;7.80;99.90;;;;;;5070046;28;20219;-89
2023/01/14 07:18:35;;;;;;;5.40;3.23;;;7.80;99.90;;;;;;5085306;28;20223;-89
2023/01/14 07:21:25;;;;;;;10.63;3.33;;;7.90;99.90;;;;;;5077934;28;20218;-89
2023/01/14 07:24:14;;;;;;;8.77;3.70;;;7.90;99.90;;;;;;5070390;28;20234;-90
2023/01/14 07:27:03;;;;;;;8.53;3.70;;;7.90;99.90;;;;;;5081800;28;20233;-90
2023/01/14 07:29:52;;;;;;;9.73;3.37;;;7.90;99.90;;;;;;5068649;28;20241;-90
2023/01/14 07:32:41;;;;;;;8.05;3.67;;;8.00;99.90;;;;;;5075176;28;20221;-88
2023/01/14 07:35:32;;;;;;;8.25;3.47;;;7.90;99.90;;;;;;5071396;28;20583;-88
2023/01/14 07:38:21;;;;;;;11.53;3.83;;;8.00;99.90;;;;;;5069120;28;20808;-89
2023/01/14 07:41:11;;;;;;;7.40;4.23;;;8.10;99.90;;;;;;5074372;28;20216;-88
2023/01/14 07:44:00;;;;;;;8.75;3.50;;;8.10;99.90;;;;;;5089993;28;20223;-88
2023/01/14 07:46:53;;;;;;;6.82;3.17;;;8.00;99.90;;;;;;5069639;28;20764;-87
2023/01/14 07:49:42;;;;;;;8.85;3.92;;;8.00;99.90;;;;;;5066738;28;20354;-88
2023/01/14 07:52:32;;;;;;;8.88;3.83;;;8.10;99.90;;;;;;5065925;28;20772;-87
2023/01/14 07:55:21;;;;;;;8.90;3.50;;;8.10;99.90;;;;;;5075560;28;20318;-88
2023/01/14 07:58:10;;;;;;;10.43;3.90;;;8.20;99.90;;;;;;5063489;28;20262;-88
2023/01/14 08:01:00;;;;;;;9.70;5.03;;;8.20;99.90;;;;;;5064855;28;20234;-88
2023/01/14 08:03:49;;;;;;;8.60;3.58;;;8.20;99.90;;;;;;5062773;28;20220;-89
2023/01/14 08:06:38;;;;;;;9.35;3.80;;;8.30;99.90;;;;;;5068479;28;20590;-89
2023/01/14 08:09:30;;;;;;;9.27;3.50;;;8.30;99.90;;;;;;5070607;28;20999;-88
2023/01/14 08:12:18;;;;;;;10.53;4.20;;;8.30;99.90;;;;;;5084016;28;20222;-89
2023/01/14 08:15:11;;;;;;;6.63;3.50;;;8.20;99.90;;;;;;5099480;28;20223;-88
2023/01/14 08:18:00;;;;;;;8.43;3.70;;;8.00;99.90;;;;;;5075984;28;20220;-88
2023/01/14 08:20:48;;;;;;;8.17;3.83;;;8.00;99.90;;;;;;5049087;28;20235;-87
2023/01/14 08:23:38;;;;;;;7.90;3.97;;;8.10;99.90;;;;;;5065193;28;20234;-90
2023/01/14 08:26:28;;;;;;;8.73;3.40;;;8.20;99.90;;;;;;5086213;28;20220;-90
2023/01/14 08:29:18;;;;;;;8.20;3.40;;;8.20;99.90;;;;;;5066979;28;20292;-90
2023/01/14 08:32:07;;;;;;;8.27;3.70;;;8.20;99.90;;;;;;5077405;28;20223;-90
2023/01/14 08:34:56;;;;;;;8.05;3.10;;;8.20;99.90;;;;;;5066267;28;20246;-87
2023/01/14 08:37:44;;;;;;;8.03;3.50;;;8.30;99.90;;;;;;5050999;28;20706;-88
2023/01/14 08:40:34;;;;;;;6.67;3.30;;;8.30;99.90;;;;;;5068919;28;20263;-89
2023/01/14 08:43:24;;;;;;;8.37;3.70;;;8.40;99.90;;;;;;5079840;28;20710;-88
2023/01/14 08:46:13;;;;;;;9.50;4.00;;;8.60;99.90;;;;;;5069514;28;20234;-91
2023/01/14 08:49:02;;;;;;;6.72;2.85;;;8.70;99.90;;;;;;5072240;28;20226;-91
2023/01/14 08:51:51;;;;;;;8.73;3.33;;;8.60;99.90;;;;;;5086793;28;20615;-89
2023/01/14 08:54:40;;;;;;;10.10;4.47;;;8.60;99.90;;;;;;5075014;28;20223;-89
2023/01/14 08:57:29;;;;;;;8.93;3.77;;;8.70;99.90;;;;;;5077415;28;20300;-88
2023/01/14 09:00:20;;;;;;;6.68;3.83;;;8.80;99.90;;;;;;5083555;28;20236;-91
2023/01/14 09:03:08;;;;;;;7.45;3.50;;;9.00;99.90;;;;;;5066172;28;20227;-89
2023/01/14 09:05:58;;;;;;;8.82;3.08;;;9.00;99.90;;;;;;5071602;28;20228;-89
2023/01/14 09:18:20;;;;;;;8.02;3.25;;;9.20;99.90;;;;;;5075030;28;20220;-90
2023/01/14 09:21:09;;;;;;;6.22;3.28;;;9.30;99.90;;;;;;5091990;28;20220;-89
2023/01/14 09:23:58;;;;;;;7.28;3.20;;;9.30;99.90;;;;;;5068675;28;20238;-86
2023/01/14 09:26:47;;;;;;;9.50;3.83;;;9.30;99.90;;;;;;5068449;28;20220;-87
2023/01/14 09:29:36;;;;;;;10.15;3.67;;;9.40;99.90;;;;;;5080305;28;20231;-86
2023/01/14 09:32:25;;;;;;;8.32;3.08;;;9.40;99.90;;;;;;5065068;28;20310;-84
2023/01/14 09:35:15;;;;;;;9.27;3.40;;;9.60;99.90;;;;;;5055167;28;20315;-88
2023/01/14 09:38:04;;;;;;;7.85;3.65;;;9.70;99.90;;;;;;5066756;28;20233;-89
2023/01/14 09:40:53;;;;;;;7.03;3.00;;;9.70;99.90;;;;;;5072995;28;20239;-90
2023/01/14 09:43:59;;;;;;;7.95;3.42;;;9.80;99.90;;;;;;5079021;28;20839;-90
2023/01/14 09:46:47;;;;;;;7.35;3.40;;;9.70;99.90;;;;;;5069159;28;20674;-89
2023/01/14 09:49:36;;;;;;;9.05;2.95;;;9.80;99.90;;;;;;5066867;28;20227;-88
2023/01/14 09:52:43;;;;;;;11.15;3.22;;;9.90;99.90;;;;;;5072328;28;20702;-85
2023/01/14 09:55:38;;;;;;;6.22;3.10;;;9.90;99.90;;;;;;5080889;28;20302;-93
2023/01/14 09:58:34;;;;;;;5.13;2.85;;;9.60;99.90;;;;;;5074949;28;20306;-90
2023/01/14 10:01:31;;;;;;;7.53;3.15;;;9.60;99.90;;;;;;5065087;28;20227;-88
2023/01/14 10:04:45;;;;;;;7.20;3.33;;;9.70;99.90;;;;;;5073122;28;20254;-89
2023/01/14 10:07:35;;;;;;;7.60;3.75;;;9.80;99.90;;;;;;5088939;28;20219;-89
2023/01/14 10:10:35;;;;;;;7.15;3.30;;;9.90;99.90;;;;;;5073966;28;20216;-90
2023/01/14 10:13:30;;;;;;;7.72;3.30;;;10.00;99.90;;;;;;5093711;28;20211;-87
2023/01/14 10:16:23;;;;;;;8.60;3.70;;;10.10;99.90;;;;;;5108770;28;20224;-91
2023/01/14 10:19:17;;;;;;;8.50;2.95;;;10.20;99.90;;;;;;5087843;28;20219;-90
2023/01/14 10:22:15;;;;;;;8.07;3.15;;;10.20;99.90;;;;;;5067265;28;20711;-91
2023/01/14 10:25:16;;;;;;;7.25;3.20;;;10.10;99.90;;;;;;5080542;28;20889;-91
2023/01/14 10:28:12;;;;;;;8.70;3.40;;;10.20;99.90;;;;;;5064186;28;20755;-90
2023/01/14 10:31:03;;;;;;;10.77;4.40;;;10.20;99.90;;;;;;5069931;28;20235;-91
2023/01/14 10:33:52;;;;;;;10.05;3.85;;;10.10;99.90;;;;;;5070331;28;20224;-88
2023/01/14 10:36:41;;;;;;;9.68;3.88;;;10.10;99.90;;;;;;5077681;28;20223;-88
2023/01/14 10:39:30;;;;;;;6.50;3.45;;;10.00;99.90;;;;;;5081127;28;20220;-88
2023/01/14 10:42:24;;;;;;;7.85;3.45;;;9.90;99.90;;;;;;5087414;28;20220;-90
2023/01/14 10:45:13;;;;;;;11.55;5.05;;;9.90;99.90;;;;;;5089459;28;20216;-89
2023/01/14 10:48:04;;;;;;;8.70;3.55;;;9.90;99.90;;;;;;5075698;28;20599;-91
2023/01/14 10:50:54;;;;;;;8.23;3.22;;;9.90;99.90;;;;;;5067197;28;20645;-91
2023/01/14 10:53:42;;;;;;;10.05;3.47;;;9.90;99.90;;;;;;5072522;28;20280;-88
2023/01/14 10:56:31;;;;;;;8.90;3.42;;;9.80;99.90;;;;;;5066568;28;20250;-88
2023/01/14 10:59:45;;;;;;;7.50;3.25;;;9.70;99.90;;;;;;5075617;28;20583;-91
2023/01/14 11:02:36;;;;;;;9.48;3.72;;;9.80;99.90;;;;;;5072175;28;20288;-89
2023/01/14 11:05:28;;;;;;;6.25;3.38;;;9.80;99.90;;;;;;5071918;28;20222;-88
2023/01/14 11:08:23;;;;;;;11.23;4.28;;;10.00;99.90;;;;;;5062982;28;20224;-90
2023/01/14 11:11:15;;;;;;;5.70;3.40;;;10.10;99.90;;;;;;5066795;28;20215;-85
2023/01/14 11:14:19;;;;;;;10.65;3.53;;;10.10;99.90;;;;;;5078297;28;20223;-88
2023/01/14 11:17:23;;;;;;;8.07;3.72;;;10.00;99.90;;;;;;5079446;28;20240;-89
2023/01/14 11:20:24;;;;;;;8.65;4.05;;;9.90;99.90;;;;;;5077730;28;20322;-90
2023/01/14 11:23:25;;;;;;;12.38;4.13;;;10.00;99.90;;;;;;5066908;28;20243;-88
2023/01/14 11:26:24;;;;;;;9.38;4.00;;;10.10;99.90;;;;;;5082491;28;20698;-89
2023/01/14 11:29:20;;;;;;;12.40;3.85;;;10.20;99.90;;;;;;5082154;28;20231;-89
2023/01/14 11:32:12;;;;;;;11.02;3.75;;;10.30;99.90;;;;;;5069637;28;20228;-87
2023/01/14 11:35:06;;;;;;;7.90;3.28;;;10.30;99.90;;;;;;5067801;28;20294;-89
2023/01/14 11:37:56;;;;;;;6.20;3.42;;;10.10;99.90;;;;;;5064514;28;20245;-89
2023/01/14 11:43:54;;;;;;;7.57;3.53;;;9.80;99.90;;;;;;5082980;28;20656;-89
2023/01/14 11:46:45;;;;;;;4.78;2.90;;;9.80;99.90;;;;;;5078113;28;20219;-89
2023/01/14 11:49:34;;;;;;;5.80;3.03;;;9.90;99.90;;;;;;5081795;28;20227;-90
2023/01/14 11:52:27;;;;;;;6.68;3.10;;;9.90;99.90;;;;;;5062465;28;20882;-91
2023/01/14 11:55:18;;;;;;;5.45;3.10;;;10.20;99.90;;;;;;5068704;28;20761;-90
2023/01/14 11:58:17;;;;;;;9.38;3.17;;;10.10;99.90;;;;;;5074187;28;20250;-88
2023/01/14 12:01:17;;;;;;;6.93;2.80;;;10.20;99.90;;;;;;5072720;28;20706;-87
2023/01/14 12:04:15;;;;;;;6.72;3.00;;;10.20;99.90;;;;;;5066872;28;20219;-90
2023/01/14 12:07:08;;;;;;;8.02;3.08;;;10.20;99.90;;;;;;5067413;28;20222;-90
2023/01/14 12:10:01;;;;;;;6.38;3.20;;;10.20;99.90;;;;;;5087029;28;20235;-89
2023/01/14 12:19:31;;;;;;;6.38;3.38;;;10.20;99.90;;;;;;5082048;28;20220;-90
2023/01/14 12:22:25;;;;;;;7.40;3.40;;;10.10;99.90;;;;;;5083860;28;20699;-88
2023/01/14 12:25:24;;;;;;;8.07;3.50;;;9.90;99.90;;;;;;5068340;28;20785;-88
2023/01/14 12:28:18;;;;;;;7.20;3.58;;;9.90;99.90;;;;;;5073236;28;20215;-89
2023/01/14 12:31:12;;;;;;;11.93;5.22;;;9.80;99.90;;;;;;5064790;28;20246;-89
2023/01/14 12:34:05;;;;;;;5.32;3.55;;;9.90;99.90;;;;;;5087801;28;20239;-88
2023/01/14 12:37:00;;;;;;;6.68;3.42;;;9.80;99.90;;;;;;5078469;28;20341;-89
2023/01/14 12:46:13;;;;;;;8.63;3.28;;;9.90;99.90;;;;;;5068821;28;20586;-88
2023/01/14 12:49:02;;;;;;;14.07;6.20;;;10.00;99.90;;;;;;5066681;28;20295;-89
2023/01/14 12:51:51;;;;;;;9.32;3.78;;;10.10;99.90;;;;;;5070110;28;20216;-90
2023/01/14 12:54:41;;;;;;;7.78;3.55;;;10.20;99.90;;;;;;5079992;28;20651;-90
2023/01/14 12:57:31;;;;;;;6.55;3.83;;;10.10;99.90;;;;;;5067117;28;20220;-89
2023/01/14 13:00:27;;;;;;;9.60;4.13;;;10.10;99.90;;;;;;5062860;28;20365;-90
2023/01/14 13:03:22;;;;;;;8.75;4.00;;;10.10;99.90;;;;;;5076442;28;20220;-90
2023/01/14 13:06:14;;;;;;;12.65;4.57;;;10.10;99.90;;;;;;5085795;28;20292;-90
2023/01/14 13:09:06;;;;;;;8.45;3.70;;;10.00;99.90;;;;;;5060646;28;20232;-90
2023/01/14 13:11:56;;;;;;;10.32;3.90;;;10.00;99.90;;;;;;5065963;28;20228;-90
2023/01/14 13:14:54;;;;;;;10.02;4.07;;;10.00;99.90;;;;;;5066199;28;20230;-89
2023/01/14 13:17:51;;;;;;;9.27;3.97;;;10.00;99.90;;;;;;5065294;28;20228;-90
2023/01/14 13:20:51;;;;;;;7.93;3.65;;;9.90;99.90;;;;;;5061509;28;20252;-89
2023/01/14 13:24:04;;;;;;;7.60;3.28;;;9.90;99.90;;;;;;5070843;28;20350;-87
2023/01/14 13:26:56;;;;;;;14.25;3.90;;;9.80;99.90;;;;;;5065897;28;20273;-82
2023/01/14 13:29:45;;;;;;;10.13;3.85;;;9.70;99.90;;;;;;5071477;28;20227;-90
2023/01/14 13:33:06;;;;;;;9.70;5.13;;;9.70;99.90;;;;;;5076219;28;20224;-85
2023/01/14 13:36:18;;;;;;;7.40;3.47;;;9.80;99.90;;;;;;5077091;28;20224;-85
2023/01/14 13:39:10;;;;;;;10.27;3.95;;;9.80;99.90;;;;;;5056814;28;20703;-85
2023/01/14 13:42:01;;;;;;;7.25;3.90;;;9.80;99.90;;;;;;5072813;28;20233;-84
2023/01/14 13:44:52;;;;;;;9.63;4.68;;;9.80;99.90;;;;;;5090493;28;20221;-86
2023/01/14 13:47:42;;;;;;;7.80;3.78;;;9.90;99.90;;;;;;5075165;28;20315;-85
2023/01/14 13:50:33;;;;;;;10.60;4.75;;;9.80;99.90;;;;;;5063067;28;20311;-85
2023/01/14 13:53:28;;;;;;;8.13;4.30;;;9.70;99.90;;;;;;5065013;28;20241;-85
2023/01/14 13:56:22;;;;;;;12.55;4.47;;;9.60;99.90;;;;;;5059986;28;20224;-85
2023/01/14 13:59:21;;;;;;;8.82;4.20;;;9.70;99.90;;;;;;5069668;28;20703;-85
2023/01/14 14:02:43;;;;;;;9.48;4.28;;;9.70;99.90;;;;;;5064713;28;20247;-85
2023/01/14 14:05:34;;;;;;;8.98;4.03;;;9.50;99.90;;;;;;5056448;28;20208;-86
2023/01/14 14:08:28;;;;;;;9.27;4.13;;;9.50;99.90;;;;;;5081996;28;20220;-85
2023/01/14 14:11:21;;;;;;;8.93;3.85;;;9.30;99.90;;;;;;5096039;28;20230;-85
2023/01/14 14:14:16;;;;;;;7.38;3.97;;;9.30;99.90;;;;;;5052844;28;20363;-85
2023/01/14 14:17:08;;;;;;;10.23;4.25;;;9.20;99.90;;;;;;5055374;28;20247;-85
2023/01/14 14:19:59;;;;;;;7.97;4.18;;;9.30;99.90;;;;;;5064173;28;20227;-84
2023/01/14 14:22:54;;;;;;;8.25;3.80;;;9.30;99.90;;;;;;5078501;28;20223;-84
2023/01/14 14:25:44;;;;;;;12.10;5.28;;;9.30;99.90;;;;;;5083544;28;20324;-85
2023/01/14 14:28:38;;;;;;;11.75;4.60;;;9.10;99.90;;;;;;5080806;28;20297;-85
2023/01/14 14:31:31;;;;;;;9.88;4.72;;;9.20;99.90;;;;;;5077982;28;20261;-84
2023/01/14 14:34:22;;;;;;;9.30;4.35;;;9.20;99.90;;;;;;5071470;28;20297;-84
2023/01/14 14:37:20;;;;;;;10.18;4.43;;;9.20;99.90;;;;;;5074693;28;20729;-88
2023/01/14 14:40:18;;;;;;;10.15;5.65;;;9.20;99.90;;;;;;5063161;28;20223;-88
2023/01/14 14:43:07;;;;;;;10.57;4.95;;;9.30;99.90;;;;;;5063939;28;20276;-85
2023/01/14 14:46:01;;;;;;;9.68;5.13;;;9.30;99.90;;;;;;5078744;28;20231;-84
2023/01/14 14:48:50;;;;;;;13.00;5.50;;;9.30;99.90;;;;;;5065667;28;20232;-85
2023/01/14 14:51:45;;;;;;;11.38;5.88;;;9.20;99.90;;;;;;5066633;28;20700;-89
2023/01/14 14:54:36;;;;;;;10.25;5.35;;;9.10;99.90;;;;;;5079937;28;20288;-87
2023/01/14 14:57:30;;;;;;;11.27;5.85;;;9.20;99.90;;;;;;5065112;28;20220;-87
2023/01/14 15:00:21;;;;;;;14.80;5.93;;;9.20;99.90;;;;;;5058837;28;20224;-86
2023/01/14 15:03:18;;;;;;;14.35;5.70;;;9.10;99.90;;;;;;5062082;28;20222;-88
2023/01/14 15:06:12;;;;;;;12.68;5.60;;;9.10;99.90;;;;;;5073207;28;20306;-88
2023/01/14 15:09:03;;;;;;;13.40;5.32;;;9.10;99.90;;;;;;5069103;28;20238;-88
2023/01/14 15:11:53;;;;;;;11.43;5.50;;;9.00;99.90;;;;;;5064046;28;20235;-86
2023/01/14 15:14:44;;;;;;;9.55;5.47;;;8.90;99.90;;;;;;5063508;28;20617;-86
2023/01/14 15:17:33;;;;;;;9.43;5.35;;;9.00;99.90;;;;;;5068448;28;20216;-86
2023/01/14 15:20:22;;;;;;;11.75;5.20;;;8.80;99.90;;;;;;5069945;28;20216;-86
2023/01/14 15:23:16;;;;;;;12.07;5.55;;;8.90;99.90;;;;;;5069554;28;20272;-87
2023/01/14 15:26:06;;;;;;;14.15;5.78;;;8.80;99.90;;;;;;5067541;28;20307;-88
2023/01/14 15:28:56;;;;;;;13.20;5.80;;;8.80;99.90;;;;;;5064734;28;20678;-86
2023/01/14 15:31:46;;;;;;;8.90;5.25;;;8.80;99.90;;;;;;5068007;28;20252;-85
2023/01/14 15:34:35;;;;;;;11.43;5.40;;;8.70;99.90;;;;;;5063328;28;20220;-85
2023/01/14 15:37:27;;;;;;;9.07;5.15;;;8.70;99.90;;;;;;5074389;28;20251;-87
2023/01/14 15:40:17;;;;;;;11.90;5.72;;;8.70;99.90;;;;;;5071371;28;20223;-89
2023/01/14 15:43:13;;;;;;;15.32;6.18;;;8.70;99.90;;;;;;5086058;28;20242;-87
2023/01/14 15:46:07;;;;;;;11.75;6.10;;;8.60;99.90;;;;;;5068990;28;20219;-86
2023/01/14 15:49:00;;;;;;;11.70;6.47;;;8.70;99.90;;;;;;5069847;28;20250;-88